createdAt,value
2022-08-29T00:00:39.976Z,17.69
2022-08-29T00:01:39.955Z,17.79
2022-08-29T00:02:40.023Z,17.84
2022-08-29T00:03:40.751Z,17.81
2022-08-29T00:04:39.971Z,17.85
2022-08-29T00:05:40.144Z,17.82
2022-08-29T00:06:39.897Z,17.82
2022-08-29T00:07:39.894Z,17.71
2022-08-29T00:08:39.883Z,17.69
2022-08-29T00:09:39.865Z,17.63
2022-08-29T00:10:39.869Z,17.76
2022-08-29T00:11:39.860Z,17.70
2022-08-29T00:12:40.830Z,17.69
2022-08-29T00:13:39.827Z,17.62
2022-08-29T00:14:39.816Z,17.55
2022-08-29T00:15:44.581Z,17.48
2022-08-29T00:16:40.894Z,17.48
2022-08-29T00:17:39.787Z,17.41
2022-08-29T00:18:39.768Z,17.48
2022-08-29T00:19:39.761Z,17.38
2022-08-29T00:20:39.759Z,17.40
2022-08-29T00:21:39.734Z,17.46
2022-08-29T00:22:39.729Z,17.38
2022-08-29T00:23:39.711Z,17.35
2022-08-29T00:24:39.700Z,17.36
2022-08-29T00:25:39.703Z,17.38
2022-08-29T00:26:39.685Z,17.33
2022-08-29T00:27:39.667Z,17.38
2022-08-29T00:28:39.665Z,17.35
2022-08-29T00:29:39.650Z,17.26
2022-08-29T00:30:39.654Z,17.40
2022-08-29T00:31:39.707Z,17.35
2022-08-29T00:32:39.617Z,17.36
2022-08-29T00:33:39.601Z,17.33
2022-08-29T00:34:39.595Z,17.35
2022-08-29T00:35:39.621Z,17.29
2022-08-29T00:36:39.574Z,17.26
2022-08-29T00:37:39.564Z,17.26
2022-08-29T00:38:39.552Z,17.29
2022-08-29T00:39:39.541Z,17.36
2022-08-29T00:40:39.580Z,17.28
2022-08-29T00:41:39.542Z,17.13
2022-08-29T00:42:39.506Z,17.17
2022-08-29T00:43:39.505Z,17.28
2022-08-29T00:44:39.489Z,17.18
2022-08-29T00:45:39.543Z,17.15
2022-08-29T00:46:39.459Z,17.15
2022-08-29T00:47:39.445Z,17.10
2022-08-29T00:48:39.439Z,17.18
2022-08-29T00:49:39.425Z,17.20
2022-08-29T00:50:39.426Z,17.22
2022-08-29T00:51:39.409Z,17.14
2022-08-29T00:52:39.420Z,17.22
2022-08-29T00:53:39.387Z,17.15
2022-08-29T00:54:39.369Z,17.08
2022-08-29T00:55:39.380Z,17.07
2022-08-29T00:56:39.352Z,17.18
2022-08-29T00:57:39.341Z,17.04
2022-08-29T00:58:39.325Z,16.98
2022-08-29T00:59:39.312Z,16.92
2022-08-29T01:00:39.414Z,16.99
2022-08-29T01:01:39.297Z,17.03
2022-08-29T01:02:40.567Z,17.07
2022-08-29T01:03:42.608Z,16.95
2022-08-29T01:04:39.265Z,16.92
2022-08-29T01:05:39.292Z,16.88
2022-08-29T01:06:39.244Z,16.80
2022-08-29T01:07:40.775Z,16.88
2022-08-29T01:08:39.225Z,16.89
2022-08-29T01:09:39.208Z,16.81
2022-08-29T01:10:39.202Z,16.75
2022-08-29T01:11:39.182Z,16.75
2022-08-29T01:12:39.170Z,16.80
2022-08-29T01:13:39.163Z,16.71
2022-08-29T01:14:39.145Z,16.74
2022-08-29T01:15:39.157Z,16.70
2022-08-29T01:16:39.160Z,16.68
2022-08-29T01:17:39.125Z,16.65
2022-08-29T01:18:39.102Z,16.65
2022-08-29T01:19:39.092Z,16.63
2022-08-29T01:20:39.095Z,16.67
2022-08-29T01:21:39.079Z,16.65
2022-08-29T01:22:39.057Z,16.71
2022-08-29T01:23:39.045Z,16.77
2022-08-29T01:24:39.041Z,16.67
2022-08-29T01:25:39.051Z,16.70
2022-08-29T01:26:39.012Z,16.71
2022-08-29T01:27:39.001Z,16.74
2022-08-29T01:28:38.991Z,16.63
2022-08-29T01:29:38.979Z,16.65
2022-08-29T01:30:38.981Z,16.71
2022-08-29T01:31:56.087Z,16.63
2022-08-29T01:32:39.953Z,16.56
2022-08-29T01:33:38.939Z,16.49
2022-08-29T01:34:38.931Z,16.50
2022-08-29T01:35:38.932Z,16.38
2022-08-29T01:36:38.909Z,16.35
2022-08-29T01:37:38.894Z,16.42
2022-08-29T01:38:38.884Z,16.33
2022-08-29T01:39:38.865Z,16.34
2022-08-29T01:40:38.984Z,16.34
2022-08-29T01:41:38.843Z,16.33
2022-08-29T01:42:38.845Z,16.38
2022-08-29T01:43:38.820Z,16.38
2022-08-29T01:44:38.817Z,16.41
2022-08-29T01:45:38.862Z,16.35
2022-08-29T01:46:38.790Z,16.34
2022-08-29T01:47:38.815Z,16.35
2022-08-29T01:48:38.773Z,16.31
2022-08-29T01:49:40.591Z,16.34
2022-08-29T01:50:38.743Z,16.27
2022-08-29T01:51:38.734Z,16.23
2022-08-29T01:52:38.745Z,16.27
2022-08-29T01:53:38.716Z,16.31
2022-08-29T01:54:38.714Z,16.27
2022-08-29T01:55:38.688Z,16.25
2022-08-29T01:56:38.676Z,16.20
2022-08-29T01:57:38.685Z,16.27
2022-08-29T01:58:38.659Z,16.26
2022-08-29T01:59:38.641Z,16.27
2022-08-29T02:00:38.647Z,16.27
2022-08-29T02:01:38.681Z,16.31
2022-08-29T02:02:38.621Z,16.34
2022-08-29T02:03:38.593Z,16.20
2022-08-29T02:04:38.582Z,16.14
2022-08-29T02:05:38.571Z,16.22
2022-08-29T02:06:38.562Z,16.23
2022-08-29T02:07:38.565Z,16.16
2022-08-29T02:08:38.539Z,16.16
2022-08-29T02:09:38.531Z,16.22
2022-08-29T02:10:39.521Z,16.06
2022-08-29T02:11:38.507Z,16.16
2022-08-29T02:12:38.538Z,16.14
2022-08-29T02:13:38.489Z,16.14
2022-08-29T02:14:38.474Z,16.11
2022-08-29T02:15:38.456Z,16.04
2022-08-29T02:16:38.511Z,16.09
2022-08-29T02:17:38.445Z,16.14
2022-08-29T02:18:38.428Z,16.16
2022-08-29T02:19:38.409Z,16.11
2022-08-29T02:20:38.409Z,16.11
2022-08-29T02:21:38.387Z,16.06
2022-08-29T02:22:38.396Z,16.01
2022-08-29T02:23:38.363Z,16.03
2022-08-29T02:24:38.361Z,16.06
2022-08-29T02:25:38.347Z,16.01
2022-08-29T02:26:38.337Z,15.97
2022-08-29T02:27:38.339Z,15.94
2022-08-29T02:28:38.314Z,15.96
2022-08-29T02:29:38.545Z,15.86
2022-08-29T02:30:38.297Z,15.97
2022-08-29T02:31:38.294Z,15.86
2022-08-29T02:32:38.282Z,15.84
2022-08-29T02:33:38.253Z,15.82
2022-08-29T02:34:38.247Z,15.76
2022-08-29T02:35:42.561Z,15.85
2022-08-29T02:36:38.215Z,15.88
2022-08-29T02:37:38.219Z,15.88
2022-08-29T02:38:38.193Z,15.88
2022-08-29T02:39:38.182Z,15.78
2022-08-29T02:40:38.250Z,15.82
2022-08-29T02:41:38.158Z,15.81
2022-08-29T02:42:38.207Z,15.79
2022-08-29T02:43:38.133Z,15.75
2022-08-29T02:44:38.126Z,15.81
2022-08-29T02:45:38.113Z,15.70
2022-08-29T02:46:38.146Z,15.81
2022-08-29T02:47:38.105Z,15.76
2022-08-29T02:48:38.090Z,15.74
2022-08-29T02:49:38.072Z,15.88
2022-08-29T02:50:38.056Z,15.81
2022-08-29T02:51:38.051Z,15.79
2022-08-29T02:52:38.084Z,15.79
2022-08-29T02:53:38.096Z,15.75
2022-08-29T02:54:38.021Z,15.75
2022-08-29T02:55:38.051Z,15.84
2022-08-29T02:56:38.001Z,15.74
2022-08-29T02:57:37.987Z,15.85
2022-08-29T02:58:37.983Z,15.76
2022-08-29T02:59:38.010Z,15.75
2022-08-29T03:00:38.003Z,15.76
2022-08-29T03:01:37.958Z,15.81
2022-08-29T03:02:37.959Z,15.81
2022-08-29T03:03:37.916Z,15.78
2022-08-29T03:04:37.895Z,15.78
2022-08-29T03:05:37.890Z,15.72
2022-08-29T03:06:37.874Z,15.70
2022-08-29T03:07:37.881Z,15.75
2022-08-29T03:08:37.852Z,15.75
2022-08-29T03:09:37.842Z,15.67
2022-08-29T03:10:37.826Z,15.67
2022-08-29T03:11:37.826Z,15.72
2022-08-29T03:12:37.849Z,15.74
2022-08-29T03:13:37.798Z,15.67
2022-08-29T03:14:37.782Z,15.72
2022-08-29T03:15:37.777Z,15.67
2022-08-29T03:16:37.812Z,15.67
2022-08-29T03:17:37.766Z,15.68
2022-08-29T03:18:37.745Z,15.84
2022-08-29T03:19:37.730Z,15.66
2022-08-29T03:20:37.720Z,15.72
2022-08-29T03:21:37.706Z,15.75
2022-08-29T03:22:37.715Z,15.66
2022-08-29T03:23:37.678Z,15.76
2022-08-29T03:24:37.669Z,15.64
2022-08-29T03:25:37.661Z,15.74
2022-08-29T03:26:37.652Z,15.63
2022-08-29T03:27:37.656Z,15.61
2022-08-29T03:28:37.630Z,15.60
2022-08-29T03:29:37.617Z,15.68
2022-08-29T03:30:37.608Z,15.72
2022-08-29T03:31:37.680Z,15.72
2022-08-29T03:32:37.596Z,15.75
2022-08-29T03:33:37.572Z,15.63
2022-08-29T03:34:37.554Z,15.67
2022-08-29T03:35:37.541Z,15.67
2022-08-29T03:36:37.538Z,15.59
2022-08-29T03:37:37.535Z,15.72
2022-08-29T03:38:37.516Z,15.63
2022-08-29T03:39:37.497Z,15.68
2022-08-29T03:40:37.535Z,15.66
2022-08-29T03:41:37.478Z,15.49
2022-08-29T03:42:37.484Z,15.54
2022-08-29T03:43:37.473Z,15.56
2022-08-29T03:44:37.439Z,15.49
2022-08-29T03:45:37.433Z,15.64
2022-08-29T03:46:37.537Z,15.48
2022-08-29T03:47:37.429Z,15.45
2022-08-29T03:48:37.403Z,15.43
2022-08-29T03:49:37.389Z,15.36
2022-08-29T03:50:37.376Z,15.42
2022-08-29T03:51:37.357Z,15.39
2022-08-29T03:52:37.358Z,15.39
2022-08-29T03:53:37.386Z,15.28
2022-08-29T03:54:37.335Z,15.26
2022-08-29T03:55:37.313Z,15.26
2022-08-29T03:56:37.303Z,15.26
2022-08-29T03:57:37.298Z,15.19
2022-08-29T03:58:37.281Z,15.21
2022-08-29T03:59:37.294Z,15.06
2022-08-29T04:00:37.259Z,15.06
2022-08-29T04:01:37.283Z,15.02
2022-08-29T04:02:37.299Z,15.12
2022-08-29T04:03:37.231Z,15.01
2022-08-29T04:04:37.227Z,15.09
2022-08-29T04:05:37.211Z,15.01
2022-08-29T04:06:37.192Z,15.03
2022-08-29T04:07:37.189Z,15.02
2022-08-29T04:08:37.171Z,15.03
2022-08-29T04:09:37.180Z,15.01
2022-08-29T04:10:37.156Z,14.91
2022-08-29T04:11:37.137Z,15.03
2022-08-29T04:12:37.131Z,14.87
2022-08-29T04:13:37.118Z,14.88
2022-08-29T04:14:37.124Z,14.90
2022-08-29T04:15:37.096Z,14.90
2022-08-29T04:16:37.150Z,14.93
2022-08-29T04:17:37.080Z,14.93
2022-08-29T04:18:38.062Z,14.81
2022-08-29T04:19:37.057Z,14.93
2022-08-29T04:20:37.062Z,14.88
2022-08-29T04:21:37.043Z,14.80
2022-08-29T04:22:37.020Z,14.94
2022-08-29T04:23:37.007Z,14.87
2022-08-29T04:24:36.996Z,14.75
2022-08-29T04:25:37.585Z,14.72
2022-08-29T04:26:37.802Z,14.78
2022-08-29T04:27:36.974Z,14.81
2022-08-29T04:28:36.953Z,14.75
2022-08-29T04:29:36.948Z,14.74
2022-08-29T04:30:36.947Z,14.78
2022-08-29T04:31:36.993Z,14.65
2022-08-29T04:32:36.923Z,14.68
2022-08-29T04:33:36.904Z,14.71
2022-08-29T04:34:36.895Z,14.75
2022-08-29T04:35:36.900Z,14.71
2022-08-29T04:36:36.867Z,14.72
2022-08-29T04:37:36.853Z,14.74
2022-08-29T04:38:36.844Z,14.75
2022-08-29T04:39:36.840Z,14.65
2022-08-29T04:40:36.912Z,14.57
2022-08-29T04:41:36.811Z,14.65
2022-08-29T04:42:36.806Z,14.68
2022-08-29T04:43:36.794Z,14.61
2022-08-29T04:44:36.787Z,14.65
2022-08-29T04:45:36.788Z,14.83
2022-08-29T04:46:36.798Z,14.72
2022-08-29T04:47:36.741Z,14.69
2022-08-29T04:48:36.735Z,14.69
2022-08-29T04:49:36.736Z,14.72
2022-08-29T04:50:36.723Z,14.87
2022-08-29T04:51:36.700Z,14.75
2022-08-29T04:52:36.695Z,14.84
2022-08-29T04:53:36.681Z,14.87
2022-08-29T04:54:36.671Z,14.83
2022-08-29T04:55:36.669Z,14.98
2022-08-29T04:56:36.641Z,14.99
2022-08-29T04:57:36.628Z,14.94
2022-08-29T04:58:36.622Z,14.95
2022-08-29T04:59:36.615Z,15.02
2022-08-29T05:00:36.612Z,15.09
2022-08-29T05:01:36.679Z,15.03
2022-08-29T05:02:36.655Z,15.06
2022-08-29T05:03:36.570Z,15.09
2022-08-29T05:04:36.558Z,15.09
2022-08-29T05:05:36.552Z,14.95
2022-08-29T05:06:36.535Z,15.08
2022-08-29T05:07:38.170Z,15.11
2022-08-29T05:08:36.506Z,15.02
2022-08-29T05:09:36.494Z,15.08
2022-08-29T05:10:36.499Z,15.08
2022-08-29T05:11:36.474Z,15.06
2022-08-29T05:12:36.468Z,15.15
2022-08-29T05:13:36.450Z,15.15
2022-08-29T05:14:36.439Z,15.11
2022-08-29T05:15:36.464Z,15.11
2022-08-29T05:16:36.421Z,15.19
2022-08-29T05:17:36.409Z,15.26
2022-08-29T05:18:36.397Z,15.15
2022-08-29T05:19:36.381Z,15.17
2022-08-29T05:20:37.383Z,15.17
2022-08-29T05:21:36.367Z,15.23
2022-08-29T05:22:36.354Z,15.28
2022-08-29T05:23:36.335Z,15.28
2022-08-29T05:24:36.335Z,15.23
2022-08-29T05:25:36.336Z,15.27
2022-08-29T05:26:36.310Z,15.33
2022-08-29T05:27:36.297Z,15.36
2022-08-29T05:28:36.282Z,15.42
2022-08-29T05:29:36.269Z,15.35
2022-08-29T05:30:36.283Z,15.36
2022-08-29T05:31:36.272Z,15.45
2022-08-29T05:32:36.236Z,15.31
2022-08-29T05:33:36.223Z,15.45
2022-08-29T05:34:36.215Z,15.38
2022-08-29T05:35:36.222Z,15.46
2022-08-29T05:36:36.196Z,15.42
2022-08-29T05:37:36.185Z,15.49
2022-08-29T05:38:36.167Z,15.60
2022-08-29T05:39:36.157Z,15.60
2022-08-29T05:40:36.211Z,15.54
2022-08-29T05:41:36.477Z,15.48
2022-08-29T05:42:36.128Z,15.57
2022-08-29T05:43:36.110Z,15.59
2022-08-29T05:44:36.097Z,15.68
2022-08-29T05:45:36.111Z,15.63
2022-08-29T05:46:36.122Z,15.70
2022-08-29T05:47:36.067Z,15.74
2022-08-29T05:48:36.063Z,15.79
2022-08-29T05:49:36.051Z,15.82
2022-08-29T05:50:36.053Z,15.81
2022-08-29T05:51:39.451Z,15.85
2022-08-29T05:52:36.012Z,15.88
2022-08-29T05:53:36.006Z,15.88
2022-08-29T05:54:35.988Z,15.82
2022-08-29T05:55:36.004Z,15.84
2022-08-29T05:56:36.216Z,15.85
2022-08-29T05:57:35.960Z,15.81
2022-08-29T05:58:35.949Z,15.94
2022-08-29T05:59:35.930Z,15.86
2022-08-29T06:00:35.921Z,15.84
2022-08-29T06:01:35.959Z,15.79
2022-08-29T06:02:36.067Z,15.85
2022-08-29T06:03:36.124Z,15.88
2022-08-29T06:04:35.880Z,15.94
2022-08-29T06:05:35.864Z,15.94
2022-08-29T06:06:35.873Z,15.82
2022-08-29T06:07:35.851Z,16.00
2022-08-29T06:08:35.834Z,15.97
2022-08-29T06:09:35.830Z,15.97
2022-08-29T06:10:35.808Z,15.96
2022-08-29T06:11:35.818Z,16.03
2022-08-29T06:12:35.785Z,15.96
2022-08-29T06:13:35.783Z,16.00
2022-08-29T06:14:35.761Z,16.09
2022-08-29T06:15:35.776Z,16.15
2022-08-29T06:16:35.754Z,16.18
2022-08-29T06:17:35.729Z,16.37
2022-08-29T06:18:35.916Z,16.44
2022-08-29T06:19:35.728Z,16.53
2022-08-29T06:20:35.697Z,16.70
2022-08-29T06:21:35.697Z,16.78
2022-08-29T06:22:40.026Z,16.85
2022-08-29T06:23:35.665Z,16.78
2022-08-29T06:24:35.658Z,16.93
2022-08-29T06:25:40.022Z,16.92
2022-08-29T06:26:35.649Z,17.14
2022-08-29T06:27:36.143Z,17.11
2022-08-29T06:28:35.617Z,17.20
2022-08-29T06:29:43.002Z,17.18
2022-08-29T06:30:36.634Z,17.17
2022-08-29T06:31:35.600Z,17.33
2022-08-29T06:32:35.580Z,17.36
2022-08-29T06:33:35.565Z,17.36
2022-08-29T06:34:35.556Z,17.20
2022-08-29T06:35:35.535Z,17.35
2022-08-29T06:36:37.172Z,17.38
2022-08-29T06:37:35.513Z,17.36
2022-08-29T06:38:35.507Z,17.33
2022-08-29T06:39:35.491Z,17.47
2022-08-29T06:40:35.527Z,17.36
2022-08-29T06:41:35.489Z,17.46
2022-08-29T06:42:35.453Z,17.66
2022-08-29T06:43:35.448Z,17.50
2022-08-29T06:44:35.434Z,17.62
2022-08-29T06:45:35.416Z,17.59
2022-08-29T06:46:35.475Z,17.64
2022-08-29T06:47:35.394Z,17.66
2022-08-29T06:48:35.380Z,17.63
2022-08-29T06:49:35.380Z,17.73
2022-08-29T06:50:35.359Z,17.67
2022-08-29T06:51:35.372Z,17.70
2022-08-29T06:52:35.605Z,17.71
2022-08-29T06:53:37.337Z,17.63
2022-08-29T06:54:35.312Z,17.67
2022-08-29T06:55:35.309Z,17.64
2022-08-29T06:56:36.724Z,17.69
2022-08-29T06:57:35.290Z,17.57
2022-08-29T06:58:35.266Z,17.64
2022-08-29T06:59:35.262Z,17.69
2022-08-29T07:00:35.253Z,17.71
2022-08-29T07:01:35.324Z,17.66
2022-08-29T07:02:35.369Z,17.70
2022-08-29T07:03:35.219Z,17.63
2022-08-29T07:04:35.204Z,17.67
2022-08-29T07:05:35.197Z,17.62
2022-08-29T07:06:35.198Z,17.63
2022-08-29T07:07:35.274Z,17.63
2022-08-29T07:08:35.173Z,17.57
2022-08-29T07:09:35.148Z,17.64
2022-08-29T07:10:35.137Z,17.55
2022-08-29T07:11:40.357Z,17.62
2022-08-29T07:12:36.120Z,17.67
2022-08-29T07:13:35.104Z,17.67
2022-08-29T07:14:35.092Z,17.67
2022-08-29T07:15:35.100Z,17.69
2022-08-29T07:16:35.074Z,17.79
2022-08-29T07:17:35.050Z,17.78
2022-08-29T07:18:35.041Z,17.87
2022-08-29T07:19:35.036Z,17.79
2022-08-29T07:20:35.022Z,17.81
2022-08-29T07:21:35.024Z,17.87
2022-08-29T07:22:34.999Z,17.85
2022-08-29T07:23:34.995Z,17.94
2022-08-29T07:24:34.978Z,18.04
2022-08-29T07:25:34.965Z,18.07
2022-08-29T07:26:34.966Z,18.07
2022-08-29T07:27:34.947Z,18.12
2022-08-29T07:28:34.928Z,18.06
2022-08-29T07:29:34.919Z,18.12
2022-08-29T07:30:34.958Z,18.06
2022-08-29T07:31:34.906Z,18.13
2022-08-29T07:32:34.876Z,18.12
2022-08-29T07:33:35.174Z,18.27
2022-08-29T07:34:34.857Z,18.25
2022-08-29T07:35:34.845Z,18.29
2022-08-29T07:36:34.903Z,18.28
2022-08-29T07:37:34.825Z,18.25
2022-08-29T07:38:35.727Z,18.37
2022-08-29T07:39:34.839Z,18.40
2022-08-29T07:40:34.867Z,18.46
2022-08-29T07:41:34.791Z,18.49
2022-08-29T07:42:34.775Z,18.49
2022-08-29T07:43:34.761Z,18.52
2022-08-29T07:44:34.791Z,18.61
2022-08-29T07:45:34.851Z,18.59
2022-08-29T07:46:34.737Z,18.72
2022-08-29T07:47:34.742Z,18.68
2022-08-29T07:48:34.718Z,18.64
2022-08-29T07:49:41.014Z,18.82
2022-08-29T07:50:35.689Z,18.77
2022-08-29T07:51:34.687Z,18.84
2022-08-29T07:52:34.881Z,18.90
2022-08-29T07:53:34.647Z,18.79
2022-08-29T07:54:34.627Z,18.86
2022-08-29T07:55:34.624Z,18.92
2022-08-29T07:56:37.923Z,19.01
2022-08-29T07:57:37.057Z,18.99
2022-08-29T07:58:35.588Z,19.10
2022-08-29T07:59:34.584Z,19.11
2022-08-29T08:00:34.566Z,19.18
2022-08-29T08:01:34.704Z,19.20
2022-08-29T08:02:34.627Z,19.32
2022-08-29T08:03:34.528Z,19.21
2022-08-29T08:04:34.527Z,19.21
2022-08-29T08:05:34.506Z,19.24
2022-08-29T08:06:34.572Z,19.18
2022-08-29T08:07:34.496Z,19.36
2022-08-29T08:08:34.503Z,19.32
2022-08-29T08:09:34.463Z,19.39
2022-08-29T08:10:34.459Z,19.50
2022-08-29T08:11:34.480Z,19.54
2022-08-29T08:12:34.446Z,19.54
2022-08-29T08:13:34.427Z,19.68
2022-08-29T08:14:34.959Z,19.70
2022-08-29T08:15:34.404Z,19.70
2022-08-29T08:16:34.439Z,19.76
2022-08-29T08:17:34.401Z,19.90
2022-08-29T08:18:34.368Z,19.84
2022-08-29T08:19:34.358Z,19.84
2022-08-29T08:20:34.345Z,19.76
2022-08-29T08:21:34.328Z,19.78
2022-08-29T08:22:34.355Z,19.72
2022-08-29T08:23:34.314Z,19.87
2022-08-29T08:24:34.304Z,19.83
2022-08-29T08:25:34.284Z,19.95
2022-08-29T08:26:34.280Z,19.98
2022-08-29T08:27:37.042Z,20.03
2022-08-29T08:28:35.256Z,20.05
2022-08-29T08:29:34.241Z,20.06
2022-08-29T08:30:35.754Z,20.20
2022-08-29T08:31:34.298Z,20.21
2022-08-29T08:32:34.221Z,20.24
2022-08-29T08:33:35.608Z,20.31
2022-08-29T08:34:35.741Z,20.27
2022-08-29T08:35:34.172Z,20.34
2022-08-29T08:36:37.610Z,20.47
2022-08-29T08:37:35.163Z,20.59
2022-08-29T08:38:34.140Z,20.64
2022-08-29T08:39:34.148Z,20.79
2022-08-29T08:40:34.151Z,20.80
2022-08-29T08:41:34.121Z,20.74
2022-08-29T08:42:34.115Z,20.84
2022-08-29T08:43:34.090Z,20.87
2022-08-29T08:44:35.122Z,20.87
2022-08-29T08:45:34.069Z,20.98
2022-08-29T08:46:34.050Z,21.02
2022-08-29T08:47:34.064Z,21.06
2022-08-29T08:48:34.041Z,21.20
2022-08-29T08:49:34.018Z,21.32
2022-08-29T08:50:34.005Z,21.32
2022-08-29T08:51:33.995Z,21.48
2022-08-29T08:52:34.014Z,21.67
2022-08-29T08:53:33.972Z,21.83
2022-08-29T08:54:33.973Z,21.95
2022-08-29T08:55:33.957Z,21.95
2022-08-29T08:56:33.936Z,22.16
2022-08-29T08:57:33.941Z,22.27
2022-08-29T08:58:33.924Z,22.39
2022-08-29T08:59:33.921Z,22.41
2022-08-29T09:00:33.894Z,22.46
2022-08-29T09:01:33.933Z,22.47
2022-08-29T09:02:34.037Z,22.41
2022-08-29T09:03:33.872Z,22.56
2022-08-29T09:04:33.864Z,22.49
2022-08-29T09:05:33.844Z,22.54
2022-08-29T09:06:33.834Z,22.71
2022-08-29T09:07:33.828Z,22.87
2022-08-29T09:08:33.808Z,23.07
2022-08-29T09:09:33.795Z,23.26
2022-08-29T09:10:33.799Z,23.45
2022-08-29T09:11:33.783Z,23.55
2022-08-29T09:12:33.780Z,23.64
2022-08-29T09:13:33.752Z,23.82
2022-08-29T09:14:33.747Z,23.86
2022-08-29T09:15:33.737Z,23.94
2022-08-29T09:16:33.748Z,24.23
2022-08-29T09:17:36.434Z,24.35
2022-08-29T09:18:35.265Z,24.67
2022-08-29T09:19:33.689Z,24.87
2022-08-29T09:20:33.676Z,24.94
2022-08-29T09:21:41.880Z,24.95
2022-08-29T09:22:34.667Z,25.12
2022-08-29T09:23:33.659Z,25.16
2022-08-29T09:24:33.637Z,25.37
2022-08-29T09:25:33.622Z,25.50
2022-08-29T09:26:33.612Z,25.68
2022-08-29T09:27:33.614Z,25.74
2022-08-29T09:28:33.584Z,25.93
2022-08-29T09:29:33.586Z,26.06
2022-08-29T09:30:33.573Z,26.36
2022-08-29T09:31:33.632Z,26.47
2022-08-29T09:32:33.564Z,26.73
2022-08-29T09:33:33.538Z,26.96
2022-08-29T09:34:50.875Z,27.31
2022-08-29T09:35:34.600Z,27.36
2022-08-29T09:36:33.505Z,27.71
2022-08-29T09:37:33.521Z,27.88
2022-08-29T09:38:33.485Z,27.94
2022-08-29T09:39:33.472Z,28.23
2022-08-29T09:40:33.506Z,28.23
2022-08-29T09:41:33.446Z,28.40
2022-08-29T09:42:33.450Z,28.58
2022-08-29T09:43:33.429Z,28.73
2022-08-29T09:44:33.418Z,28.84
2022-08-29T09:45:33.479Z,29.10
2022-08-29T09:46:33.388Z,29.19
2022-08-29T09:47:33.391Z,29.23
2022-08-29T09:48:35.525Z,29.29
2022-08-29T09:49:33.371Z,29.41
2022-08-29T09:50:33.343Z,29.56
2022-08-29T09:51:33.335Z,29.71
2022-08-29T09:52:33.340Z,29.96
2022-08-29T09:53:33.316Z,30.18
2022-08-29T09:54:33.303Z,30.26
2022-08-29T09:55:33.295Z,30.54
2022-08-29T09:56:33.287Z,30.61
2022-08-29T09:57:33.290Z,30.57
2022-08-29T09:58:37.512Z,30.71
2022-08-29T09:59:34.660Z,30.62
2022-08-29T10:00:33.244Z,30.81
2022-08-29T10:01:36.596Z,30.81
2022-08-29T10:02:33.307Z,30.96
2022-08-29T10:03:33.205Z,31.09
2022-08-29T10:04:33.198Z,31.13
2022-08-29T10:05:33.182Z,31.26
2022-08-29T10:06:33.184Z,31.45
2022-08-29T10:07:33.183Z,31.53
2022-08-29T10:08:33.154Z,31.73
2022-08-29T10:09:33.145Z,31.85
2022-08-29T10:10:33.137Z,32.05
2022-08-29T10:11:33.128Z,32.10
2022-08-29T10:12:33.123Z,32.36
2022-08-29T10:13:34.199Z,32.30
2022-08-29T10:14:33.095Z,32.25
2022-08-29T10:15:49.810Z,32.00
2022-08-29T10:16:34.207Z,31.64
2022-08-29T10:17:33.068Z,30.91
2022-08-29T10:18:33.045Z,30.54
2022-08-29T10:19:34.572Z,30.50
2022-08-29T10:20:33.032Z,30.36
2022-08-29T10:21:33.025Z,30.27
2022-08-29T10:22:33.031Z,30.29
2022-08-29T10:23:33.001Z,30.23
2022-08-29T10:24:32.983Z,30.31
2022-08-29T10:25:32.971Z,29.94
2022-08-29T10:26:32.970Z,29.68
2022-08-29T10:27:32.990Z,29.57
2022-08-29T10:28:32.941Z,29.55
2022-08-29T10:29:32.932Z,29.60
2022-08-29T10:30:32.940Z,29.68
2022-08-29T10:31:32.943Z,29.62
2022-08-29T10:32:32.921Z,29.84
2022-08-29T10:33:32.888Z,29.74
2022-08-29T10:34:32.884Z,29.79
2022-08-29T10:35:32.866Z,30.02
2022-08-29T10:36:32.865Z,30.19
2022-08-29T10:37:32.866Z,30.36
2022-08-29T10:38:32.843Z,30.19
2022-08-29T10:39:32.830Z,30.19
2022-08-29T10:40:32.883Z,30.26
2022-08-29T10:41:32.802Z,30.11
2022-08-29T10:42:32.815Z,30.03
2022-08-29T10:43:32.779Z,29.93
2022-08-29T10:44:32.781Z,29.89
2022-08-29T10:45:32.807Z,29.92
2022-08-29T10:46:32.750Z,30.00
2022-08-29T10:47:32.763Z,30.08
2022-08-29T10:48:32.730Z,30.03
2022-08-29T10:49:32.725Z,29.99
2022-08-29T10:50:46.451Z,29.90
2022-08-29T10:51:33.708Z,29.93
2022-08-29T10:52:32.702Z,29.94
2022-08-29T10:53:32.684Z,29.81
2022-08-29T10:54:32.677Z,29.71
2022-08-29T10:55:32.667Z,29.56
2022-08-29T10:56:32.648Z,29.40
2022-08-29T10:57:32.655Z,29.16
2022-08-29T10:58:32.636Z,28.84
2022-08-29T10:59:32.621Z,28.72
2022-08-29T11:00:32.614Z,28.32
2022-08-29T11:01:32.678Z,27.95
2022-08-29T11:02:32.601Z,27.50
2022-08-29T11:03:32.581Z,27.43
2022-08-29T11:04:32.564Z,27.53
2022-08-29T11:05:32.552Z,27.57
2022-08-29T11:06:32.614Z,27.88
2022-08-29T11:07:32.556Z,27.86
2022-08-29T11:08:32.538Z,28.01
2022-08-29T11:09:32.522Z,28.29
2022-08-29T11:10:32.505Z,28.26
2022-08-29T11:11:32.496Z,28.17
2022-08-29T11:12:32.502Z,28.22
2022-08-29T11:13:32.474Z,28.16
2022-08-29T11:14:32.465Z,28.38
2022-08-29T11:15:32.451Z,28.43
2022-08-29T11:16:32.605Z,28.51
2022-08-29T11:17:32.468Z,28.66
2022-08-29T11:18:32.434Z,28.84
2022-08-29T11:19:32.425Z,28.88
2022-08-29T11:20:32.402Z,29.03
2022-08-29T11:21:32.381Z,29.13
2022-08-29T11:22:32.385Z,29.08
2022-08-29T11:23:32.377Z,29.22
2022-08-29T11:24:34.821Z,29.22
2022-08-29T11:25:32.340Z,29.37
2022-08-29T11:26:32.336Z,29.52
2022-08-29T11:27:32.357Z,29.57
2022-08-29T11:28:32.318Z,29.55
2022-08-29T11:29:32.312Z,29.60
2022-08-29T11:30:35.208Z,29.57
2022-08-29T11:31:33.354Z,29.56
2022-08-29T11:32:32.291Z,29.57
2022-08-29T11:33:32.261Z,29.59
2022-08-29T11:34:32.253Z,29.70
2022-08-29T11:35:32.233Z,29.70
2022-08-29T11:36:32.228Z,29.63
2022-08-29T11:37:32.212Z,29.70
2022-08-29T11:38:32.223Z,29.75
2022-08-29T11:39:33.344Z,29.68
2022-08-29T11:40:48.082Z,29.87
2022-08-29T11:41:33.822Z,29.93
2022-08-29T11:43:33.162Z,30.05
2022-08-29T11:44:32.148Z,30.07
2022-08-29T11:45:36.582Z,30.26
2022-08-29T11:46:33.170Z,30.18
2022-08-29T11:47:32.124Z,30.12
2022-08-29T11:48:33.122Z,30.26
2022-08-29T11:49:32.093Z,30.24
2022-08-29T11:50:32.088Z,30.27
2022-08-29T11:51:32.107Z,30.36
2022-08-29T11:52:32.058Z,30.27
2022-08-29T11:53:32.062Z,30.29
2022-08-29T11:54:32.035Z,30.11
2022-08-29T11:55:32.032Z,29.99
2022-08-29T11:56:32.023Z,29.87
2022-08-29T11:57:32.007Z,29.92
2022-08-29T11:58:32.004Z,29.78
2022-08-29T11:59:31.983Z,29.94
2022-08-29T12:00:32.028Z,30.11
2022-08-29T12:01:31.968Z,30.31
2022-08-29T12:02:31.957Z,30.40
2022-08-29T12:03:32.252Z,30.43
2022-08-29T12:04:31.975Z,30.45
2022-08-29T12:05:31.916Z,30.26
2022-08-29T12:06:31.933Z,30.03
2022-08-29T12:07:31.900Z,29.86
2022-08-29T12:08:36.923Z,29.86
2022-08-29T12:09:32.885Z,29.62
2022-08-29T12:10:31.867Z,29.52
2022-08-29T12:11:31.859Z,29.33
2022-08-29T12:12:31.852Z,29.25
2022-08-29T12:13:31.854Z,29.03
2022-08-29T12:14:37.322Z,28.80
2022-08-29T12:15:32.848Z,28.80
2022-08-29T12:16:31.907Z,28.77
2022-08-29T12:17:58.294Z,28.56
2022-08-29T12:18:36.311Z,28.73
2022-08-29T12:19:31.768Z,28.81
2022-08-29T12:20:31.759Z,29.11
2022-08-29T12:21:31.753Z,29.33
2022-08-29T12:22:31.769Z,29.57
2022-08-29T12:23:31.760Z,29.66
2022-08-29T12:24:31.716Z,29.79
2022-08-29T12:25:31.705Z,30.03
2022-08-29T12:26:31.695Z,30.19
2022-08-29T12:27:31.689Z,30.30
2022-08-29T12:28:31.709Z,30.40
2022-08-29T12:29:31.668Z,30.37
2022-08-29T12:30:31.672Z,30.38
2022-08-29T12:31:31.693Z,30.38
2022-08-29T12:32:31.932Z,30.50
2022-08-29T12:33:31.627Z,30.72
2022-08-29T12:34:31.636Z,30.81
2022-08-29T12:35:31.596Z,30.83
2022-08-29T12:36:31.624Z,30.83
2022-08-29T12:37:31.578Z,30.94
2022-08-29T12:38:31.574Z,30.87
2022-08-29T12:39:31.559Z,31.04
2022-08-29T12:40:31.679Z,31.02
2022-08-29T12:41:31.539Z,30.98
2022-08-29T12:42:31.538Z,31.11
2022-08-29T12:43:31.520Z,31.13
2022-08-29T12:44:31.510Z,31.15
2022-08-29T12:45:31.504Z,31.23
2022-08-29T12:46:31.550Z,31.13
2022-08-29T12:47:31.469Z,30.96
2022-08-29T12:48:31.467Z,30.62
2022-08-29T12:49:31.461Z,30.34
2022-08-29T12:50:31.468Z,30.08
2022-08-29T12:51:31.437Z,29.87
2022-08-29T12:52:31.427Z,29.72
2022-08-29T12:53:31.406Z,29.72